sensor_id;sensor_type;location;lat;lon;timestamp;P1;durP1;ratioP1;P2;durP2;ratioP2
4597;SDS011;62772;48.646;8.906;2023-06-14T00:00:10;10.03;;;6.20;;
4597;SDS011;62772;48.646;8.906;2023-06-14T00:05:12;9.60;;;6.03;;
4597;SDS011;62772;48.646;8.906;2023-06-14T00:10:13;10.20;;;6.20;;
4597;SDS011;62772;48.646;8.906;2023-06-14T00:15:14;10.30;;;6.20;;
4597;SDS011;62772;48.646;8.906;2023-06-14T00:20:14;11.53;;;6.37;;
4597;SDS011;62772;48.646;8.906;2023-06-14T00:25:15;9.10;;;6.00;;
4597;SDS011;62772;48.646;8.906;2023-06-14T00:30:16;10.50;;;5.73;;
4597;SDS011;62772;48.646;8.906;2023-06-14T00:35:16;10.43;;;5.90;;
4597;SDS011;62772;48.646;8.906;2023-06-14T00:40:25;8.97;;;6.03;;
4597;SDS011;62772;48.646;8.906;2023-06-14T00:45:26;8.33;;;5.40;;
4597;SDS011;62772;48.646;8.906;2023-06-14T00:50:26;10.57;;;6.23;;
4597;SDS011;62772;48.646;8.906;2023-06-14T00:55:27;22.83;;;7.10;;
4597;SDS011;62772;48.646;8.906;2023-06-14T01:00:29;12.77;;;5.97;;
4597;SDS011;62772;48.646;8.906;2023-06-14T01:05:30;11.60;;;5.97;;
4597;SDS011;62772;48.646;8.906;2023-06-14T01:15:45;9.17;;;6.20;;
4597;SDS011;62772;48.646;8.906;2023-06-14T01:20:47;12.87;;;6.73;;
4597;SDS011;62772;48.646;8.906;2023-06-14T01:25:50;9.57;;;6.20;;
4597;SDS011;62772;48.646;8.906;2023-06-14T01:30:55;10.90;;;6.63;;
4597;SDS011;62772;48.646;8.906;2023-06-14T01:35:55;9.90;;;6.67;;
4597;SDS011;62772;48.646;8.906;2023-06-14T01:40:56;10.03;;;6.30;;
4597;SDS011;62772;48.646;8.906;2023-06-14T01:45:59;11.70;;;6.30;;
4597;SDS011;62772;48.646;8.906;2023-06-14T01:51:01;14.30;;;6.80;;
4597;SDS011;62772;48.646;8.906;2023-06-14T01:56:01;11.50;;;6.80;;
4597;SDS011;62772;48.646;8.906;2023-06-14T02:01:04;8.80;;;6.33;;
4597;SDS011;62772;48.646;8.906;2023-06-14T02:06:05;10.87;;;6.80;;
4597;SDS011;62772;48.646;8.906;2023-06-14T02:11:07;13.33;;;6.97;;
4597;SDS011;62772;48.646;8.906;2023-06-14T02:16:08;10.80;;;7.00;;
4597;SDS011;62772;48.646;8.906;2023-06-14T02:21:09;11.30;;;6.60;;
4597;SDS011;62772;48.646;8.906;2023-06-14T02:26:09;9.00;;;7.03;;
4597;SDS011;62772;48.646;8.906;2023-06-14T02:31:09;9.70;;;6.50;;
4597;SDS011;62772;48.646;8.906;2023-06-14T02:36:10;9.67;;;6.30;;
4597;SDS011;62772;48.646;8.906;2023-06-14T02:41:11;10.23;;;7.03;;
4597;SDS011;62772;48.646;8.906;2023-06-14T02:46:11;9.67;;;6.70;;
4597;SDS011;62772;48.646;8.906;2023-06-14T02:51:11;9.63;;;7.10;;
4597;SDS011;62772;48.646;8.906;2023-06-14T02:56:12;10.60;;;6.97;;
4597;SDS011;62772;48.646;8.906;2023-06-14T03:01:14;10.43;;;7.27;;
4597;SDS011;62772;48.646;8.906;2023-06-14T03:06:15;9.97;;;7.13;;
4597;SDS011;62772;48.646;8.906;2023-06-14T03:11:19;11.93;;;7.30;;
4597;SDS011;62772;48.646;8.906;2023-06-14T03:16:21;10.83;;;7.53;;
4597;SDS011;62772;48.646;8.906;2023-06-14T03:21:25;10.43;;;7.10;;
4597;SDS011;62772;48.646;8.906;2023-06-14T03:26:28;9.10;;;6.47;;
4597;SDS011;62772;48.646;8.906;2023-06-14T03:31:30;12.07;;;7.17;;
4597;SDS011;62772;48.646;8.906;2023-06-14T03:36:36;10.70;;;6.93;;
4597;SDS011;62772;48.646;8.906;2023-06-14T03:41:37;10.60;;;7.40;;
4597;SDS011;62772;48.646;8.906;2023-06-14T03:46:37;9.60;;;6.40;;
4597;SDS011;62772;48.646;8.906;2023-06-14T03:51:38;11.23;;;6.93;;
4597;SDS011;62772;48.646;8.906;2023-06-14T03:56:40;11.00;;;6.97;;
4597;SDS011;62772;48.646;8.906;2023-06-14T04:01:44;18.50;;;7.60;;
4597;SDS011;62772;48.646;8.906;2023-06-14T04:06:48;11.50;;;7.57;;
4597;SDS011;62772;48.646;8.906;2023-06-14T04:11:52;10.70;;;7.23;;
4597;SDS011;62772;48.646;8.906;2023-06-14T04:16:53;14.07;;;8.43;;
4597;SDS011;62772;48.646;8.906;2023-06-14T04:21:55;10.33;;;7.70;;
4597;SDS011;62772;48.646;8.906;2023-06-14T04:26:56;10.90;;;7.20;;
4597;SDS011;62772;48.646;8.906;2023-06-14T04:31:59;10.60;;;7.30;;
4597;SDS011;62772;48.646;8.906;2023-06-14T04:37:00;12.40;;;7.80;;
4597;SDS011;62772;48.646;8.906;2023-06-14T04:42:09;10.03;;;7.13;;
4597;SDS011;62772;48.646;8.906;2023-06-14T04:47:12;10.90;;;6.50;;
4597;SDS011;62772;48.646;8.906;2023-06-14T04:52:16;9.53;;;6.27;;
4597;SDS011;62772;48.646;8.906;2023-06-14T04:57:18;10.73;;;7.50;;
4597;SDS011;62772;48.646;8.906;2023-06-14T05:02:24;12.07;;;7.90;;
4597;SDS011;62772;48.646;8.906;2023-06-14T05:07:26;12.27;;;7.77;;
4597;SDS011;62772;48.646;8.906;2023-06-14T05:12:27;11.50;;;7.40;;
4597;SDS011;62772;48.646;8.906;2023-06-14T05:17:29;12.70;;;7.93;;
4597;SDS011;62772;48.646;8.906;2023-06-14T05:22:29;11.07;;;7.30;;
4597;SDS011;62772;48.646;8.906;2023-06-14T05:27:30;11.27;;;7.73;;
4597;SDS011;62772;48.646;8.906;2023-06-14T05:32:30;11.73;;;7.87;;
4597;SDS011;62772;48.646;8.906;2023-06-14T05:37:31;13.63;;;8.00;;
4597;SDS011;62772;48.646;8.906;2023-06-14T05:42:32;12.00;;;8.30;;
4597;SDS011;62772;48.646;8.906;2023-06-14T05:47:33;15.13;;;7.93;;
4597;SDS011;62772;48.646;8.906;2023-06-14T05:52:34;14.20;;;8.10;;
4597;SDS011;62772;48.646;8.906;2023-06-14T05:57:35;16.00;;;7.30;;
4597;SDS011;62772;48.646;8.906;2023-06-14T06:02:35;11.43;;;7.30;;
4597;SDS011;62772;48.646;8.906;2023-06-14T06:07:36;10.80;;;7.17;;
4597;SDS011;62772;48.646;8.906;2023-06-14T06:12:37;24.80;;;7.70;;
4597;SDS011;62772;48.646;8.906;2023-06-14T06:17:38;16.80;;;7.73;;
4597;SDS011;62772;48.646;8.906;2023-06-14T06:22:38;13.53;;;7.10;;
4597;SDS011;62772;48.646;8.906;2023-06-14T06:27:39;10.40;;;6.47;;
4597;SDS011;62772;48.646;8.906;2023-06-14T06:32:41;10.50;;;6.70;;
4597;SDS011;62772;48.646;8.906;2023-06-14T06:37:41;10.57;;;6.57;;
4597;SDS011;62772;48.646;8.906;2023-06-14T06:42:42;10.47;;;7.30;;
4597;SDS011;62772;48.646;8.906;2023-06-14T06:47:46;10.23;;;6.47;;
4597;SDS011;62772;48.646;8.906;2023-06-14T06:52:46;16.10;;;6.40;;
4597;SDS011;62772;48.646;8.906;2023-06-14T06:57:47;12.77;;;7.20;;
4597;SDS011;62772;48.646;8.906;2023-06-14T07:02:48;10.70;;;6.40;;
4597;SDS011;62772;48.646;8.906;2023-06-14T07:07:48;9.33;;;6.20;;
4597;SDS011;62772;48.646;8.906;2023-06-14T07:12:48;10.17;;;6.40;;
4597;SDS011;62772;48.646;8.906;2023-06-14T07:17:49;13.70;;;6.60;;
4597;SDS011;62772;48.646;8.906;2023-06-14T07:22:50;13.37;;;6.40;;
4597;SDS011;62772;48.646;8.906;2023-06-14T07:27:51;12.43;;;6.60;;
4597;SDS011;62772;48.646;8.906;2023-06-14T07:32:52;13.60;;;5.90;;
4597;SDS011;62772;48.646;8.906;2023-06-14T07:37:53;8.93;;;6.10;;
4597;SDS011;62772;48.646;8.906;2023-06-14T07:42:53;10.73;;;6.47;;
4597;SDS011;62772;48.646;8.906;2023-06-14T07:47:55;9.70;;;6.10;;
4597;SDS011;62772;48.646;8.906;2023-06-14T07:52:56;10.10;;;5.93;;
4597;SDS011;62772;48.646;8.906;2023-06-14T07:57:56;11.07;;;6.20;;
4597;SDS011;62772;48.646;8.906;2023-06-14T08:02:57;13.03;;;6.00;;
4597;SDS011;62772;48.646;8.906;2023-06-14T08:07:59;9.87;;;6.40;;
4597;SDS011;62772;48.646;8.906;2023-06-14T08:12:59;9.47;;;6.23;;
4597;SDS011;62772;48.646;8.906;2023-06-14T08:18:00;12.23;;;6.00;;
4597;SDS011;62772;48.646;8.906;2023-06-14T08:23:04;10.60;;;5.80;;
4597;SDS011;62772;48.646;8.906;2023-06-14T08:28:04;10.00;;;6.50;;
4597;SDS011;62772;48.646;8.906;2023-06-14T08:33:05;12.10;;;5.83;;
4597;SDS011;62772;48.646;8.906;2023-06-14T08:38:05;12.43;;;6.00;;
4597;SDS011;62772;48.646;8.906;2023-06-14T08:43:06;12.87;;;6.80;;
4597;SDS011;62772;48.646;8.906;2023-06-14T08:48:07;9.27;;;5.87;;
4597;SDS011;62772;48.646;8.906;2023-06-14T08:53:08;10.53;;;6.40;;
4597;SDS011;62772;48.646;8.906;2023-06-14T08:58:11;8.60;;;6.33;;
4597;SDS011;62772;48.646;8.906;2023-06-14T09:03:14;10.00;;;6.77;;
4597;SDS011;62772;48.646;8.906;2023-06-14T09:08:14;8.70;;;6.23;;
4597;SDS011;62772;48.646;8.906;2023-06-14T09:13:16;9.17;;;6.50;;
4597;SDS011;62772;48.646;8.906;2023-06-14T09:18:18;11.93;;;6.83;;
4597;SDS011;62772;48.646;8.906;2023-06-14T09:23:20;11.13;;;6.37;;
4597;SDS011;62772;48.646;8.906;2023-06-14T09:28:26;11.60;;;6.20;;
4597;SDS011;62772;48.646;8.906;2023-06-14T09:33:27;9.10;;;6.13;;
4597;SDS011;62772;48.646;8.906;2023-06-14T09:38:28;9.57;;;6.20;;
4597;SDS011;62772;48.646;8.906;2023-06-14T09:43:28;9.33;;;6.20;;
4597;SDS011;62772;48.646;8.906;2023-06-14T09:48:28;8.93;;;6.30;;
4597;SDS011;62772;48.646;8.906;2023-06-14T09:53:29;13.43;;;6.73;;
4597;SDS011;62772;48.646;8.906;2023-06-14T09:58:31;10.70;;;6.47;;
4597;SDS011;62772;48.646;8.906;2023-06-14T10:03:35;10.43;;;6.50;;
4597;SDS011;62772;48.646;8.906;2023-06-14T10:08:37;13.00;;;7.17;;
4597;SDS011;62772;48.646;8.906;2023-06-14T10:13:40;10.13;;;6.37;;
4597;SDS011;62772;48.646;8.906;2023-06-14T10:23:47;7.80;;;5.40;;
4597;SDS011;62772;48.646;8.906;2023-06-14T10:29:08;9.40;;;6.17;;
4597;SDS011;62772;48.646;8.906;2023-06-14T10:34:09;10.37;;;5.93;;
4597;SDS011;62772;48.646;8.906;2023-06-14T10:39:13;10.40;;;5.10;;
4597;SDS011;62772;48.646;8.906;2023-06-14T10:49:16;11.13;;;5.20;;
4597;SDS011;62772;48.646;8.906;2023-06-14T10:54:21;8.67;;;5.50;;
4597;SDS011;62772;48.646;8.906;2023-06-14T10:59:23;9.30;;;5.10;;
4597;SDS011;62772;48.646;8.906;2023-06-14T11:04:27;12.90;;;5.30;;
4597;SDS011;62772;48.646;8.906;2023-06-14T11:15:15;10.30;;;5.10;;
4597;SDS011;62772;48.646;8.906;2023-06-14T11:20:15;8.50;;;5.13;;
4597;SDS011;62772;48.646;8.906;2023-06-14T11:25:17;11.07;;;5.20;;
4597;SDS011;62772;48.646;8.906;2023-06-14T11:30:17;6.53;;;4.50;;
4597;SDS011;62772;48.646;8.906;2023-06-14T11:35:18;8.40;;;4.80;;
4597;SDS011;62772;48.646;8.906;2023-06-14T11:40:25;8.67;;;5.13;;
4597;SDS011;62772;48.646;8.906;2023-06-14T11:45:27;7.60;;;5.03;;
4597;SDS011;62772;48.646;8.906;2023-06-14T11:50:30;10.63;;;5.17;;
4597;SDS011;62772;48.646;8.906;2023-06-14T11:55:30;7.70;;;5.00;;
4597;SDS011;62772;48.646;8.906;2023-06-14T12:00:31;7.27;;;5.40;;
4597;SDS011;62772;48.646;8.906;2023-06-14T12:05:32;11.10;;;5.20;;
4597;SDS011;62772;48.646;8.906;2023-06-14T12:10:40;8.97;;;5.50;;
4597;SDS011;62772;48.646;8.906;2023-06-14T12:15:44;8.87;;;5.40;;
4597;SDS011;62772;48.646;8.906;2023-06-14T12:20:50;12.20;;;5.93;;
4597;SDS011;62772;48.646;8.906;2023-06-14T12:25:50;9.37;;;5.63;;
4597;SDS011;62772;48.646;8.906;2023-06-14T12:30:52;9.70;;;5.90;;
4597;SDS011;62772;48.646;8.906;2023-06-14T12:35:54;10.23;;;5.63;;
4597;SDS011;62772;48.646;8.906;2023-06-14T12:40:56;9.60;;;6.00;;
4597;SDS011;62772;48.646;8.906;2023-06-14T12:45:57;8.47;;;5.03;;
4597;SDS011;62772;48.646;8.906;2023-06-14T12:50:58;8.73;;;5.00;;
4597;SDS011;62772;48.646;8.906;2023-06-14T12:55:58;8.90;;;5.33;;
4597;SDS011;62772;48.646;8.906;2023-06-14T13:00:59;8.47;;;4.90;;
4597;SDS011;62772;48.646;8.906;2023-06-14T13:05:59;8.10;;;4.90;;
4597;SDS011;62772;48.646;8.906;2023-06-14T13:11:01;10.30;;;5.27;;
4597;SDS011;62772;48.646;8.906;2023-06-14T13:16:01;7.27;;;5.20;;
4597;SDS011;62772;48.646;8.906;2023-06-14T13:21:02;8.83;;;5.53;;
4597;SDS011;62772;48.646;8.906;2023-06-14T13:26:02;8.27;;;5.33;;
4597;SDS011;62772;48.646;8.906;2023-06-14T13:31:03;8.70;;;5.83;;
4597;SDS011;62772;48.646;8.906;2023-06-14T13:36:04;8.10;;;4.67;;
4597;SDS011;62772;48.646;8.906;2023-06-14T13:41:04;10.43;;;5.37;;
4597;SDS011;62772;48.646;8.906;2023-06-14T13:46:05;11.80;;;5.33;;
4597;SDS011;62772;48.646;8.906;2023-06-14T13:51:05;8.83;;;5.47;;
4597;SDS011;62772;48.646;8.906;2023-06-14T13:56:06;9.50;;;4.90;;
4597;SDS011;62772;48.646;8.906;2023-06-14T14:01:07;10.77;;;4.80;;
4597;SDS011;62772;48.646;8.906;2023-06-14T14:06:08;7.97;;;5.27;;
4597;SDS011;62772;48.646;8.906;2023-06-14T14:11:09;7.30;;;5.30;;
4597;SDS011;62772;48.646;8.906;2023-06-14T14:16:10;6.17;;;4.53;;
4597;SDS011;62772;48.646;8.906;2023-06-14T14:21:11;7.30;;;4.67;;
4597;SDS011;62772;48.646;8.906;2023-06-14T14:26:11;8.23;;;5.27;;
4597;SDS011;62772;48.646;8.906;2023-06-14T14:31:11;8.17;;;5.47;;
4597;SDS011;62772;48.646;8.906;2023-06-14T14:36:12;8.03;;;4.70;;
4597;SDS011;62772;48.646;8.906;2023-06-14T14:41:13;6.77;;;4.90;;
4597;SDS011;62772;48.646;8.906;2023-06-14T14:46:14;13.07;;;4.77;;
4597;SDS011;62772;48.646;8.906;2023-06-14T14:51:16;7.80;;;4.90;;
4597;SDS011;62772;48.646;8.906;2023-06-14T14:56:17;14.80;;;4.67;;
4597;SDS011;62772;48.646;8.906;2023-06-14T15:01:17;7.47;;;4.97;;
4597;SDS011;62772;48.646;8.906;2023-06-14T15:06:18;7.57;;;4.60;;
4597;SDS011;62772;48.646;8.906;2023-06-14T15:11:18;11.80;;;4.97;;
4597;SDS011;62772;48.646;8.906;2023-06-14T15:16:19;8.10;;;4.90;;
4597;SDS011;62772;48.646;8.906;2023-06-14T15:21:19;9.37;;;4.50;;
4597;SDS011;62772;48.646;8.906;2023-06-14T15:26:20;7.60;;;5.03;;
4597;SDS011;62772;48.646;8.906;2023-06-14T15:31:21;12.33;;;4.97;;
4597;SDS011;62772;48.646;8.906;2023-06-14T15:36:24;7.87;;;5.20;;
4597;SDS011;62772;48.646;8.906;2023-06-14T15:41:24;7.03;;;5.00;;
4597;SDS011;62772;48.646;8.906;2023-06-14T15:46:25;7.23;;;5.00;;
4597;SDS011;62772;48.646;8.906;2023-06-14T15:51:25;6.53;;;5.10;;
4597;SDS011;62772;48.646;8.906;2023-06-14T15:56:26;7.60;;;5.43;;
4597;SDS011;62772;48.646;8.906;2023-06-14T16:01:26;8.47;;;5.20;;
4597;SDS011;62772;48.646;8.906;2023-06-14T16:06:27;6.80;;;5.10;;
4597;SDS011;62772;48.646;8.906;2023-06-14T16:11:27;11.77;;;4.90;;
4597;SDS011;62772;48.646;8.906;2023-06-14T16:16:28;8.37;;;4.87;;
4597;SDS011;62772;48.646;8.906;2023-06-14T16:21:28;12.60;;;4.70;;
4597;SDS011;62772;48.646;8.906;2023-06-14T16:26:29;6.33;;;4.67;;
4597;SDS011;62772;48.646;8.906;2023-06-14T16:31:30;14.60;;;5.80;;
4597;SDS011;62772;48.646;8.906;2023-06-14T16:36:30;7.50;;;5.20;;
4597;SDS011;62772;48.646;8.906;2023-06-14T16:41:30;7.70;;;5.10;;
4597;SDS011;62772;48.646;8.906;2023-06-14T16:46:31;7.70;;;5.10;;
4597;SDS011;62772;48.646;8.906;2023-06-14T16:51:32;12.53;;;5.00;;
4597;SDS011;62772;48.646;8.906;2023-06-14T16:56:33;8.70;;;4.77;;
4597;SDS011;62772;48.646;8.906;2023-06-14T17:01:33;9.43;;;5.60;;
4597;SDS011;62772;48.646;8.906;2023-06-14T17:06:34;7.40;;;5.07;;
4597;SDS011;62772;48.646;8.906;2023-06-14T17:11:35;7.37;;;5.23;;
4597;SDS011;62772;48.646;8.906;2023-06-14T17:16:35;7.60;;;5.00;;
4597;SDS011;62772;48.646;8.906;2023-06-14T17:21:36;6.93;;;4.60;;
4597;SDS011;62772;48.646;8.906;2023-06-14T17:26:36;7.00;;;4.83;;
4597;SDS011;62772;48.646;8.906;2023-06-14T17:31:36;6.80;;;5.50;;
4597;SDS011;62772;48.646;8.906;2023-06-14T17:36:37;7.50;;;4.77;;
4597;SDS011;62772;48.646;8.906;2023-06-14T17:41:38;6.40;;;4.60;;
4597;SDS011;62772;48.646;8.906;2023-06-14T17:46:38;7.87;;;5.50;;
4597;SDS011;62772;48.646;8.906;2023-06-14T17:51:38;8.60;;;5.33;;
4597;SDS011;62772;48.646;8.906;2023-06-14T17:56:39;9.60;;;5.07;;
4597;SDS011;62772;48.646;8.906;2023-06-14T18:01:40;7.73;;;5.40;;
4597;SDS011;62772;48.646;8.906;2023-06-14T18:06:40;9.20;;;5.60;;
4597;SDS011;62772;48.646;8.906;2023-06-14T18:11:41;7.20;;;5.10;;
4597;SDS011;62772;48.646;8.906;2023-06-14T18:16:41;6.83;;;5.23;;
4597;SDS011;62772;48.646;8.906;2023-06-14T18:21:43;11.07;;;5.13;;
4597;SDS011;62772;48.646;8.906;2023-06-14T18:26:44;7.93;;;4.70;;
4597;SDS011;62772;48.646;8.906;2023-06-14T18:31:44;7.93;;;5.07;;
4597;SDS011;62772;48.646;8.906;2023-06-14T18:36:45;9.73;;;4.60;;
4597;SDS011;62772;48.646;8.906;2023-06-14T18:41:45;9.80;;;5.20;;
4597;SDS011;62772;48.646;8.906;2023-06-14T18:46:46;9.27;;;5.10;;
4597;SDS011;62772;48.646;8.906;2023-06-14T18:51:46;8.40;;;5.03;;
4597;SDS011;62772;48.646;8.906;2023-06-14T18:56:47;15.50;;;5.23;;
4597;SDS011;62772;48.646;8.906;2023-06-14T19:01:47;7.00;;;4.83;;
4597;SDS011;62772;48.646;8.906;2023-06-14T19:06:47;7.43;;;5.10;;
4597;SDS011;62772;48.646;8.906;2023-06-14T19:11:49;6.50;;;4.97;;
4597;SDS011;62772;48.646;8.906;2023-06-14T19:16:49;9.80;;;4.77;;
4597;SDS011;62772;48.646;8.906;2023-06-14T19:21:51;9.10;;;5.07;;
4597;SDS011;62772;48.646;8.906;2023-06-14T19:26:52;10.30;;;5.17;;
4597;SDS011;62772;48.646;8.906;2023-06-14T19:31:52;8.23;;;5.50;;
4597;SDS011;62772;48.646;8.906;2023-06-14T19:36:53;9.33;;;5.30;;
4597;SDS011;62772;48.646;8.906;2023-06-14T19:41:54;9.07;;;5.70;;
4597;SDS011;62772;48.646;8.906;2023-06-14T19:46:54;7.40;;;5.10;;
4597;SDS011;62772;48.646;8.906;2023-06-14T19:51:54;11.70;;;5.43;;
4597;SDS011;62772;48.646;8.906;2023-06-14T19:56:55;7.93;;;5.77;;
4597;SDS011;62772;48.646;8.906;2023-06-14T20:01:55;7.60;;;5.10;;
4597;SDS011;62772;48.646;8.906;2023-06-14T20:06:56;8.47;;;5.63;;
4597;SDS011;62772;48.646;8.906;2023-06-14T20:11:58;7.50;;;5.20;;
4597;SDS011;62772;48.646;8.906;2023-06-14T20:16:59;8.87;;;5.33;;
4597;SDS011;62772;48.646;8.906;2023-06-14T20:21:59;8.10;;;5.43;;
4597;SDS011;62772;48.646;8.906;2023-06-14T20:27:00;9.53;;;5.90;;
4597;SDS011;62772;48.646;8.906;2023-06-14T20:32:00;8.00;;;5.37;;
4597;SDS011;62772;48.646;8.906;2023-06-14T20:37:00;7.80;;;5.60;;
4597;SDS011;62772;48.646;8.906;2023-06-14T20:42:01;8.77;;;5.80;;
4597;SDS011;62772;48.646;8.906;2023-06-14T20:47:02;13.97;;;5.20;;
4597;SDS011;62772;48.646;8.906;2023-06-14T20:52:03;10.33;;;5.73;;
4597;SDS011;62772;48.646;8.906;2023-06-14T20:57:05;9.70;;;5.40;;
4597;SDS011;62772;48.646;8.906;2023-06-14T21:02:07;8.43;;;5.10;;
4597;SDS011;62772;48.646;8.906;2023-06-14T21:07:15;8.43;;;5.70;;
4597;SDS011;62772;48.646;8.906;2023-06-14T21:12:15;8.93;;;6.07;;
4597;SDS011;62772;48.646;8.906;2023-06-14T21:17:16;8.37;;;5.50;;
4597;SDS011;62772;48.646;8.906;2023-06-14T21:22:16;9.70;;;5.97;;
4597;SDS011;62772;48.646;8.906;2023-06-14T21:27:17;8.20;;;5.80;;
4597;SDS011;62772;48.646;8.906;2023-06-14T21:32:17;11.10;;;5.40;;
4597;SDS011;62772;48.646;8.906;2023-06-14T21:37:18;7.57;;;5.30;;
4597;SDS011;62772;48.646;8.906;2023-06-14T21:42:18;11.73;;;6.33;;
4597;SDS011;62772;48.646;8.906;2023-06-14T21:47:19;7.67;;;5.37;;
4597;SDS011;62772;48.646;8.906;2023-06-14T21:52:20;9.83;;;5.80;;
4597;SDS011;62772;48.646;8.906;2023-06-14T21:57:20;9.80;;;6.47;;
4597;SDS011;62772;48.646;8.906;2023-06-14T22:02:21;9.47;;;6.73;;
4597;SDS011;62772;48.646;8.906;2023-06-14T22:07:21;11.27;;;6.53;;
4597;SDS011;62772;48.646;8.906;2023-06-14T22:12:22;12.90;;;6.70;;
4597;SDS011;62772;48.646;8.906;2023-06-14T22:17:24;12.47;;;6.40;;
4597;SDS011;62772;48.646;8.906;2023-06-14T22:22:26;9.40;;;6.90;;
4597;SDS011;62772;48.646;8.906;2023-06-14T22:27:27;9.50;;;6.53;;
4597;SDS011;62772;48.646;8.906;2023-06-14T22:32:28;10.30;;;7.20;;
4597;SDS011;62772;48.646;8.906;2023-06-14T22:37:32;10.10;;;6.70;;
4597;SDS011;62772;48.646;8.906;2023-06-14T22:42:38;10.37;;;6.57;;
4597;SDS011;62772;48.646;8.906;2023-06-14T22:47:41;9.90;;;6.57;;
4597;SDS011;62772;48.646;8.906;2023-06-14T22:52:41;10.50;;;7.03;;
4597;SDS011;62772;48.646;8.906;2023-06-14T22:57:44;11.53;;;6.50;;
4597;SDS011;62772;48.646;8.906;2023-06-14T23:02:46;10.83;;;7.40;;
4597;SDS011;62772;48.646;8.906;2023-06-14T23:07:46;12.23;;;7.80;;
4597;SDS011;62772;48.646;8.906;2023-06-14T23:12:46;9.23;;;6.50;;
4597;SDS011;62772;48.646;8.906;2023-06-14T23:17:48;9.07;;;6.70;;
4597;SDS011;62772;48.646;8.906;2023-06-14T23:22:50;11.70;;;7.27;;
4597;SDS011;62772;48.646;8.906;2023-06-14T23:27:52;9.60;;;7.23;;
4597;SDS011;62772;48.646;8.906;2023-06-14T23:32:52;11.60;;;7.00;;
4597;SDS011;62772;48.646;8.906;2023-06-14T23:37:53;10.00;;;6.93;;
4597;SDS011;62772;48.646;8.906;2023-06-14T23:42:54;10.87;;;7.57;;
4597;SDS011;62772;48.646;8.906;2023-06-14T23:47:55;11.17;;;7.30;;
4597;SDS011;62772;48.646;8.906;2023-06-14T23:52:55;9.60;;;7.27;;
4597;SDS011;62772;48.646;8.906;2023-06-14T23:57:59;10.73;;;7.50;;
